Aérodrome :
LOGIN :

S'inscrire | Disclaimer

   EN    FR    IT 

 










Légende :    VFR   VFR Marginal   IFR   IFR Intensif   IFR Très Intensif
Visi : 
Plafond : 
>= 8 km
>= 3000ft
5 à 8 km
1000 à 3000 ft
1500m à 5 km
500 à 1000 ft
800 à 1500m
200 à 500 ft
< 800m
< 200 ft
Symboles :   Orages  Brouillard  Fortes neiges  Fortes précipitations  Vent > 20 kt
SIGMETs :   Divers  Orages  Givrage  Turbulence  Onde Orograph.  Cendres Volcan.






- Altitude de l'aérodrome : 68 ft
- Code IATA : AGH


ESTA - Ängelholm-Helsingborg

DERNIER METAR :
  • 202350Z AUTO 22011KT 9000 RA FEW010/// BKN017/// OVC024/// 06/05 Q0996

METARs EXPIRÉS :
  • 202320Z AUTO 21014KT 8000 -RA BKN007/// BKN009/// OVC013/// 06/05 Q0996
  • 202250Z AUTO 21014KT 7000 -RA OVC007/// 06/05 Q0997
  • 202220Z AUTO 20017KT 7000 -RA OVC007/// 06/05 Q0997
  • 202150Z 20016KT 8000 -RA BKN007 06/05 Q0998
  • 202120Z 21016KT 8000 -RA OVC008 06/05 Q0999

Prévision TAF périmée.



MET'MAP, la Météo Aéronautique d'un coup d'oeil ! - Copyright ORBIFLY Décembre 2007 - Disclaimer

ORBIFLY MET'MAP TEAM :

Programmation & Développement : Alexandra Zaïnal
Sur une idée originale de : Baudouin d'Aumeries
Assistance à la programmation : Marc-Olivier Méhu
Soutien technique & logistique : Manuel Goepfert

Contact : metmap@orbifly.com




SOURCES & CREDITS :

   NOAA